sensor_id;sensor_type;location;lat;lon;timestamp;temperature;humidity
23683;DHT22;24897;53.514;10.482;2022-07-29T00:02:01;13.00;99.90
23683;DHT22;24897;53.514;10.482;2022-07-29T00:07:30;13.10;99.90
23683;DHT22;24897;53.514;10.482;2022-07-29T00:10:14;13.30;99.90
23683;DHT22;24897;53.514;10.482;2022-07-29T00:12:59;13.70;99.90
23683;DHT22;24897;53.514;10.482;2022-07-29T00:15:43;13.20;99.90
23683;DHT22;24897;53.514;10.482;2022-07-29T00:18:27;13.20;99.90
23683;DHT22;24897;53.514;10.482;2022-07-29T00:23:56;13.10;99.90
23683;DHT22;24897;53.514;10.482;2022-07-29T00:26:40;12.90;99.90
23683;DHT22;24897;53.514;10.482;2022-07-29T00:29:24;13.20;99.90
23683;DHT22;24897;53.514;10.482;2022-07-29T00:34:52;12.80;99.90
23683;DHT22;24897;53.514;10.482;2022-07-29T00:37:55;13.00;99.90
23683;DHT22;24897;53.514;10.482;2022-07-29T00:40:40;13.40;99.90
23683;DHT22;24897;53.514;10.482;2022-07-29T00:43:25;12.90;99.90
23683;DHT22;24897;53.514;10.482;2022-07-29T00:46:10;13.20;99.90
23683;DHT22;24897;53.514;10.482;2022-07-29T00:54:24;13.30;99.90
23683;DHT22;24897;53.514;10.482;2022-07-29T00:57:11;12.90;99.90
23683;DHT22;24897;53.514;10.482;2022-07-29T01:05:27;12.80;99.90
23683;DHT22;24897;53.514;10.482;2022-07-29T01:08:13;12.80;99.90
23683;DHT22;24897;53.514;10.482;2022-07-29T01:11:00;13.50;99.90
23683;DHT22;24897;53.514;10.482;2022-07-29T01:13:45;13.40;99.90
23683;DHT22;24897;53.514;10.482;2022-07-29T01:16:32;13.90;99.90
23683;DHT22;24897;53.514;10.482;2022-07-29T01:19:45;13.10;99.90
23683;DHT22;24897;53.514;10.482;2022-07-29T01:31:58;13.00;99.90
23683;DHT22;24897;53.514;10.482;2022-07-29T01:38:02;13.20;99.90
23683;DHT22;24897;53.514;10.482;2022-07-29T01:40:52;13.20;99.90
23683;DHT22;24897;53.514;10.482;2022-07-29T01:43:51;13.10;99.90
23683;DHT22;24897;53.514;10.482;2022-07-29T01:46:40;13.20;99.90
23683;DHT22;24897;53.514;10.482;2022-07-29T01:49:31;13.20;99.90
23683;DHT22;24897;53.514;10.482;2022-07-29T01:52:31;13.70;99.90
23683;DHT22;24897;53.514;10.482;2022-07-29T01:55:17;13.20;99.90
23683;DHT22;24897;53.514;10.482;2022-07-29T01:58:05;13.20;99.90
23683;DHT22;24897;53.514;10.482;2022-07-29T02:00:50;13.20;99.90
23683;DHT22;24897;53.514;10.482;2022-07-29T02:03:36;13.50;99.90
23683;DHT22;24897;53.514;10.482;2022-07-29T02:06:22;13.60;99.90
23683;DHT22;24897;53.514;10.482;2022-07-29T02:09:08;13.20;99.90
23683;DHT22;24897;53.514;10.482;2022-07-29T02:11:55;13.70;99.90
23683;DHT22;24897;53.514;10.482;2022-07-29T02:14:44;13.40;99.90
23683;DHT22;24897;53.514;10.482;2022-07-29T02:17:45;13.80;99.90
23683;DHT22;24897;53.514;10.482;2022-07-29T02:20:31;13.60;99.90
23683;DHT22;24897;53.514;10.482;2022-07-29T02:23:19;13.30;99.90
23683;DHT22;24897;53.514;10.482;2022-07-29T02:26:04;13.30;99.90
23683;DHT22;24897;53.514;10.482;2022-07-29T02:28:51;13.00;99.90
23683;DHT22;24897;53.514;10.482;2022-07-29T02:31:39;13.30;99.90
23683;DHT22;24897;53.514;10.482;2022-07-29T02:34:28;13.50;99.90
23683;DHT22;24897;53.514;10.482;2022-07-29T02:37:14;13.70;99.90
23683;DHT22;24897;53.514;10.482;2022-07-29T02:40:00;13.40;99.90
23683;DHT22;24897;53.514;10.482;2022-07-29T02:42:45;14.30;99.90
23683;DHT22;24897;53.514;10.482;2022-07-29T02:48:16;13.20;99.90
23683;DHT22;24897;53.514;10.482;2022-07-29T02:51:25;13.30;99.90
23683;DHT22;24897;53.514;10.482;2022-07-29T02:55:22;13.60;99.90
23683;DHT22;24897;53.514;10.482;2022-07-29T02:57:36;13.70;99.90
23683;DHT22;24897;53.514;10.482;2022-07-29T03:00:27;13.30;99.90
23683;DHT22;24897;53.514;10.482;2022-07-29T03:03:13;13.90;99.90
23683;DHT22;24897;53.514;10.482;2022-07-29T03:06:00;13.30;99.90
23683;DHT22;24897;53.514;10.482;2022-07-29T03:08:46;13.30;99.90
23683;DHT22;24897;53.514;10.482;2022-07-29T03:11:31;13.80;99.90
23683;DHT22;24897;53.514;10.482;2022-07-29T03:14:19;13.40;99.90
23683;DHT22;24897;53.514;10.482;2022-07-29T03:17:05;14.50;99.90
23683;DHT22;24897;53.514;10.482;2022-07-29T03:19:49;13.80;99.90
23683;DHT22;24897;53.514;10.482;2022-07-29T03:22:42;13.20;99.90
23683;DHT22;24897;53.514;10.482;2022-07-29T03:25:27;13.10;99.90
23683;DHT22;24897;53.514;10.482;2022-07-29T03:28:11;13.50;99.90
23683;DHT22;24897;53.514;10.482;2022-07-29T03:30:55;14.10;99.90
23683;DHT22;24897;53.514;10.482;2022-07-29T03:33:39;13.50;99.90
23683;DHT22;24897;53.514;10.482;2022-07-29T03:39:09;13.50;99.90
23683;DHT22;24897;53.514;10.482;2022-07-29T03:41:56;13.50;99.90
23683;DHT22;24897;53.514;10.482;2022-07-29T03:44:44;13.70;99.90
23683;DHT22;24897;53.514;10.482;2022-07-29T03:47:30;14.00;99.90
23683;DHT22;24897;53.514;10.482;2022-07-29T03:50:17;13.60;99.90
23683;DHT22;24897;53.514;10.482;2022-07-29T03:53:03;14.10;99.90
23683;DHT22;24897;53.514;10.482;2022-07-29T03:55:52;13.70;99.90
23683;DHT22;24897;53.514;10.482;2022-07-29T03:58:38;13.70;99.90
23683;DHT22;24897;53.514;10.482;2022-07-29T04:01:23;13.70;99.90
23683;DHT22;24897;53.514;10.482;2022-07-29T04:04:08;13.70;99.90
23683;DHT22;24897;53.514;10.482;2022-07-29T04:09:38;13.80;99.90
23683;DHT22;24897;53.514;10.482;2022-07-29T04:12:22;14.30;99.90
23683;DHT22;24897;53.514;10.482;2022-07-29T04:15:06;13.80;99.90
23683;DHT22;24897;53.514;10.482;2022-07-29T04:17:50;13.90;99.90
23683;DHT22;24897;53.514;10.482;2022-07-29T04:20:35;13.90;99.90
23683;DHT22;24897;53.514;10.482;2022-07-29T04:23:19;14.00;99.90
23683;DHT22;24897;53.514;10.482;2022-07-29T04:26:03;14.00;99.90
23683;DHT22;24897;53.514;10.482;2022-07-29T04:28:47;14.20;99.90
23683;DHT22;24897;53.514;10.482;2022-07-29T04:31:31;14.20;99.90
23683;DHT22;24897;53.514;10.482;2022-07-29T04:34:15;14.90;99.90
23683;DHT22;24897;53.514;10.482;2022-07-29T04:37:00;14.20;99.90
23683;DHT22;24897;53.514;10.482;2022-07-29T04:39:44;14.00;99.90
23683;DHT22;24897;53.514;10.482;2022-07-29T04:42:28;14.10;99.90
23683;DHT22;24897;53.514;10.482;2022-07-29T04:45:13;14.40;99.90
23683;DHT22;24897;53.514;10.482;2022-07-29T04:47:57;14.60;99.90
23683;DHT22;24897;53.514;10.482;2022-07-29T04:50:41;14.70;99.90
23683;DHT22;24897;53.514;10.482;2022-07-29T04:53:26;14.90;99.90
23683;DHT22;24897;53.514;10.482;2022-07-29T04:56:10;15.00;99.90
23683;DHT22;24897;53.514;10.482;2022-07-29T04:58:54;15.00;99.90
23683;DHT22;24897;53.514;10.482;2022-07-29T05:01:38;15.70;99.90
23683;DHT22;24897;53.514;10.482;2022-07-29T05:04:22;16.30;99.90
23683;DHT22;24897;53.514;10.482;2022-07-29T05:07:06;16.80;99.90
23683;DHT22;24897;53.514;10.482;2022-07-29T05:09:50;17.20;99.90
23683;DHT22;24897;53.514;10.482;2022-07-29T05:12:35;17.10;99.90
23683;DHT22;24897;53.514;10.482;2022-07-29T05:15:19;18.00;99.90
23683;DHT22;24897;53.514;10.482;2022-07-29T05:18:04;16.10;99.90
23683;DHT22;24897;53.514;10.482;2022-07-29T05:20:48;15.70;99.90
23683;DHT22;24897;53.514;10.482;2022-07-29T05:23:32;16.80;99.90
23683;DHT22;24897;53.514;10.482;2022-07-29T05:26:16;16.40;99.90
23683;DHT22;24897;53.514;10.482;2022-07-29T05:29:00;16.30;99.90
23683;DHT22;24897;53.514;10.482;2022-07-29T05:31:44;16.50;99.90
23683;DHT22;24897;53.514;10.482;2022-07-29T05:37:13;15.00;99.90
23683;DHT22;24897;53.514;10.482;2022-07-29T05:39:57;16.10;99.90
23683;DHT22;24897;53.514;10.482;2022-07-29T05:42:41;16.00;99.90
23683;DHT22;24897;53.514;10.482;2022-07-29T05:45:25;16.70;99.90
23683;DHT22;24897;53.514;10.482;2022-07-29T05:50:54;16.60;99.90
23683;DHT22;24897;53.514;10.482;2022-07-29T05:53:39;16.60;99.90
23683;DHT22;24897;53.514;10.482;2022-07-29T05:56:23;16.60;99.90
23683;DHT22;24897;53.514;10.482;2022-07-29T06:01:52;17.10;99.90
23683;DHT22;24897;53.514;10.482;2022-07-29T06:04:36;17.50;99.90
23683;DHT22;24897;53.514;10.482;2022-07-29T06:10:05;21.10;99.90
23683;DHT22;24897;53.514;10.482;2022-07-29T06:12:50;21.40;99.90
23683;DHT22;24897;53.514;10.482;2022-07-29T06:18:19;21.90;99.90
23683;DHT22;24897;53.514;10.482;2022-07-29T06:21:08;21.60;99.90
23683;DHT22;24897;53.514;10.482;2022-07-29T06:23:52;20.70;99.90
23683;DHT22;24897;53.514;10.482;2022-07-29T06:26:37;20.70;99.90
23683;DHT22;24897;53.514;10.482;2022-07-29T06:29:21;20.70;99.90
23683;DHT22;24897;53.514;10.482;2022-07-29T06:32:06;20.10;99.90
23683;DHT22;24897;53.514;10.482;2022-07-29T06:34:50;20.10;99.90
23683;DHT22;24897;53.514;10.482;2022-07-29T06:37:35;20.30;99.90
23683;DHT22;24897;53.514;10.482;2022-07-29T06:40:19;20.70;99.90
23683;DHT22;24897;53.514;10.482;2022-07-29T06:43:22;20.70;99.90
23683;DHT22;24897;53.514;10.482;2022-07-29T06:46:09;20.40;99.90
23683;DHT22;24897;53.514;10.482;2022-07-29T06:48:54;20.20;99.90
23683;DHT22;24897;53.514;10.482;2022-07-29T06:51:38;20.10;99.90
23683;DHT22;24897;53.514;10.482;2022-07-29T06:57:08;19.60;99.90
23683;DHT22;24897;53.514;10.482;2022-07-29T06:59:51;19.40;99.90
23683;DHT22;24897;53.514;10.482;2022-07-29T07:02:36;19.40;99.90
23683;DHT22;24897;53.514;10.482;2022-07-29T07:05:20;19.50;99.90
23683;DHT22;24897;53.514;10.482;2022-07-29T07:08:04;19.60;99.90
23683;DHT22;24897;53.514;10.482;2022-07-29T07:10:49;19.60;99.90
23683;DHT22;24897;53.514;10.482;2022-07-29T07:13:33;19.60;99.90
23683;DHT22;24897;53.514;10.482;2022-07-29T07:16:18;20.00;99.90
23683;DHT22;24897;53.514;10.482;2022-07-29T07:19:02;19.30;99.90
23683;DHT22;24897;53.514;10.482;2022-07-29T07:24:31;19.80;99.90
23683;DHT22;24897;53.514;10.482;2022-07-29T07:27:15;18.50;99.90
23683;DHT22;24897;53.514;10.482;2022-07-29T07:30:01;19.20;99.90
23683;DHT22;24897;53.514;10.482;2022-07-29T07:35:30;20.20;99.90
23683;DHT22;24897;53.514;10.482;2022-07-29T07:38:15;20.90;99.90
23683;DHT22;24897;53.514;10.482;2022-07-29T07:41:00;20.40;99.90
23683;DHT22;24897;53.514;10.482;2022-07-29T07:43:45;19.80;99.90
23683;DHT22;24897;53.514;10.482;2022-07-29T07:46:29;20.90;99.90
23683;DHT22;24897;53.514;10.482;2022-07-29T07:49:13;20.90;99.90
23683;DHT22;24897;53.514;10.482;2022-07-29T07:51:57;20.90;99.90
23683;DHT22;24897;53.514;10.482;2022-07-29T07:54:41;20.70;99.90
23683;DHT22;24897;53.514;10.482;2022-07-29T08:00:15;21.60;99.90
23683;DHT22;24897;53.514;10.482;2022-07-29T08:03:00;21.40;99.90
23683;DHT22;24897;53.514;10.482;2022-07-29T08:05:44;21.90;99.90
23683;DHT22;24897;53.514;10.482;2022-07-29T08:08:28;22.70;99.90
23683;DHT22;24897;53.514;10.482;2022-07-29T08:11:12;22.30;99.90
23683;DHT22;24897;53.514;10.482;2022-07-29T08:13:58;22.30;99.90
23683;DHT22;24897;53.514;10.482;2022-07-29T08:16:42;21.90;99.90
23683;DHT22;24897;53.514;10.482;2022-07-29T08:19:27;22.30;99.90
23683;DHT22;24897;53.514;10.482;2022-07-29T08:22:11;22.60;99.90
23683;DHT22;24897;53.514;10.482;2022-07-29T08:24:55;22.70;99.90
23683;DHT22;24897;53.514;10.482;2022-07-29T08:27:40;22.70;99.90
23683;DHT22;24897;53.514;10.482;2022-07-29T08:30:24;22.20;99.90
23683;DHT22;24897;53.514;10.482;2022-07-29T08:33:08;22.70;99.90
23683;DHT22;24897;53.514;10.482;2022-07-29T08:35:53;22.10;99.90
23683;DHT22;24897;53.514;10.482;2022-07-29T08:38:37;22.60;99.90
23683;DHT22;24897;53.514;10.482;2022-07-29T08:41:21;22.60;99.90
23683;DHT22;24897;53.514;10.482;2022-07-29T08:44:05;23.20;99.90
23683;DHT22;24897;53.514;10.482;2022-07-29T08:46:50;22.30;99.90
23683;DHT22;24897;53.514;10.482;2022-07-29T08:49:34;23.40;99.90
23683;DHT22;24897;53.514;10.482;2022-07-29T08:52:19;23.80;99.90
23683;DHT22;24897;53.514;10.482;2022-07-29T08:55:06;23.20;99.90
23683;DHT22;24897;53.514;10.482;2022-07-29T08:57:51;25.20;99.90
23683;DHT22;24897;53.514;10.482;2022-07-29T09:00:43;24.90;99.90
23683;DHT22;24897;53.514;10.482;2022-07-29T09:03:32;24.40;99.90
23683;DHT22;24897;53.514;10.482;2022-07-29T09:06:18;25.80;99.90
23683;DHT22;24897;53.514;10.482;2022-07-29T09:09:03;25.60;99.90
23683;DHT22;24897;53.514;10.482;2022-07-29T09:11:48;25.60;99.90
23683;DHT22;24897;53.514;10.482;2022-07-29T09:17:16;25.90;99.90
23683;DHT22;24897;53.514;10.482;2022-07-29T09:20:16;26.00;99.90
23683;DHT22;24897;53.514;10.482;2022-07-29T09:23:07;26.10;99.90
23683;DHT22;24897;53.514;10.482;2022-07-29T09:25:52;26.10;99.90
23683;DHT22;24897;53.514;10.482;2022-07-29T09:28:41;26.70;99.90
23683;DHT22;24897;53.514;10.482;2022-07-29T09:31:35;26.20;99.90
23683;DHT22;24897;53.514;10.482;2022-07-29T09:34:24;26.40;99.90
23683;DHT22;24897;53.514;10.482;2022-07-29T09:37:08;26.50;99.90
23683;DHT22;24897;53.514;10.482;2022-07-29T09:39:52;26.90;99.90
23683;DHT22;24897;53.514;10.482;2022-07-29T09:42:37;27.00;99.90
23683;DHT22;24897;53.514;10.482;2022-07-29T09:45:32;27.00;99.90
23683;DHT22;24897;53.514;10.482;2022-07-29T09:48:22;27.60;99.90
23683;DHT22;24897;53.514;10.482;2022-07-29T09:51:18;27.80;99.90
23683;DHT22;24897;53.514;10.482;2022-07-29T09:54:24;27.00;99.90
23683;DHT22;24897;53.514;10.482;2022-07-29T09:57:23;26.90;99.90
23683;DHT22;24897;53.514;10.482;2022-07-29T10:00:12;27.20;99.90
23683;DHT22;24897;53.514;10.482;2022-07-29T10:03:00;27.10;99.90
23683;DHT22;24897;53.514;10.482;2022-07-29T10:05:45;27.30;99.90
23683;DHT22;24897;53.514;10.482;2022-07-29T10:08:30;27.50;99.90
23683;DHT22;24897;53.514;10.482;2022-07-29T10:11:16;27.90;99.90
23683;DHT22;24897;53.514;10.482;2022-07-29T10:14:02;27.90;99.90
23683;DHT22;24897;53.514;10.482;2022-07-29T10:16:47;28.20;99.90
23683;DHT22;24897;53.514;10.482;2022-07-29T10:19:31;27.40;99.90
23683;DHT22;24897;53.514;10.482;2022-07-29T10:22:16;28.00;99.90
23683;DHT22;24897;53.514;10.482;2022-07-29T10:25:01;28.30;99.90
23683;DHT22;24897;53.514;10.482;2022-07-29T10:27:46;27.20;99.90
23683;DHT22;24897;53.514;10.482;2022-07-29T10:30:31;27.70;99.90
23683;DHT22;24897;53.514;10.482;2022-07-29T10:33:28;27.90;99.90
23683;DHT22;24897;53.514;10.482;2022-07-29T10:36:27;26.80;99.90
23683;DHT22;24897;53.514;10.482;2022-07-29T10:39:32;27.50;99.90
23683;DHT22;24897;53.514;10.482;2022-07-29T10:42:25;26.70;99.90
23683;DHT22;24897;53.514;10.482;2022-07-29T10:45:09;27.40;99.90
23683;DHT22;24897;53.514;10.482;2022-07-29T10:48:03;26.10;99.90
23683;DHT22;24897;53.514;10.482;2022-07-29T10:51:03;26.70;99.90
23683;DHT22;24897;53.514;10.482;2022-07-29T10:53:52;27.00;99.90
23683;DHT22;24897;53.514;10.482;2022-07-29T10:56:37;25.90;99.90
23683;DHT22;24897;53.514;10.482;2022-07-29T10:59:24;26.40;99.90
23683;DHT22;24897;53.514;10.482;2022-07-29T11:05:24;26.30;99.90
23683;DHT22;24897;53.514;10.482;2022-07-29T11:14:03;27.00;99.90
23683;DHT22;24897;53.514;10.482;2022-07-29T11:17:00;25.80;99.90
23683;DHT22;24897;53.514;10.482;2022-07-29T11:19:48;26.30;99.90
23683;DHT22;24897;53.514;10.482;2022-07-29T11:22:34;27.40;99.90
23683;DHT22;24897;53.514;10.482;2022-07-29T11:25:19;25.90;99.90
23683;DHT22;24897;53.514;10.482;2022-07-29T11:28:17;26.90;99.90
23683;DHT22;24897;53.514;10.482;2022-07-29T11:31:03;26.70;99.90
23683;DHT22;24897;53.514;10.482;2022-07-29T11:33:48;26.90;99.90
23683;DHT22;24897;53.514;10.482;2022-07-29T11:36:32;26.80;99.90
23683;DHT22;24897;53.514;10.482;2022-07-29T11:39:26;26.90;99.90
23683;DHT22;24897;53.514;10.482;2022-07-29T11:45:10;26.90;99.90
23683;DHT22;24897;53.514;10.482;2022-07-29T11:47:58;27.70;99.90
23683;DHT22;24897;53.514;10.482;2022-07-29T11:50:42;27.40;99.90
23683;DHT22;24897;53.514;10.482;2022-07-29T11:53:27;28.10;99.90
23683;DHT22;24897;53.514;10.482;2022-07-29T11:56:13;28.70;99.90
23683;DHT22;24897;53.514;10.482;2022-07-29T11:59:04;29.10;99.90
23683;DHT22;24897;53.514;10.482;2022-07-29T12:01:55;28.50;99.90
23683;DHT22;24897;53.514;10.482;2022-07-29T12:04:51;29.10;99.90
23683;DHT22;24897;53.514;10.482;2022-07-29T12:07:36;28.70;99.90
23683;DHT22;24897;53.514;10.482;2022-07-29T12:10:20;28.80;99.90
23683;DHT22;24897;53.514;10.482;2022-07-29T12:13:06;28.30;99.90
23683;DHT22;24897;53.514;10.482;2022-07-29T12:15:57;29.20;99.90
23683;DHT22;24897;53.514;10.482;2022-07-29T12:18:42;29.40;99.90
23683;DHT22;24897;53.514;10.482;2022-07-29T12:21:26;29.80;99.90
23683;DHT22;24897;53.514;10.482;2022-07-29T12:24:11;28.10;99.90
23683;DHT22;24897;53.514;10.482;2022-07-29T12:26:59;28.20;99.90
23683;DHT22;24897;53.514;10.482;2022-07-29T12:29:44;28.50;99.90
23683;DHT22;24897;53.514;10.482;2022-07-29T12:32:47;28.50;99.90
23683;DHT22;24897;53.514;10.482;2022-07-29T12:35:32;28.30;99.90
23683;DHT22;24897;53.514;10.482;2022-07-29T12:38:16;28.70;99.90
23683;DHT22;24897;53.514;10.482;2022-07-29T12:41:01;28.40;99.90
23683;DHT22;24897;53.514;10.482;2022-07-29T12:43:55;27.70;99.90
23683;DHT22;24897;53.514;10.482;2022-07-29T12:46:39;28.40;99.90
23683;DHT22;24897;53.514;10.482;2022-07-29T12:49:23;28.00;99.90
23683;DHT22;24897;53.514;10.482;2022-07-29T12:52:29;28.20;99.90
23683;DHT22;24897;53.514;10.482;2022-07-29T12:55:13;27.70;99.90
23683;DHT22;24897;53.514;10.482;2022-07-29T12:57:58;27.60;99.90
23683;DHT22;24897;53.514;10.482;2022-07-29T13:00:42;27.40;99.90
23683;DHT22;24897;53.514;10.482;2022-07-29T13:03:26;27.50;99.90
23683;DHT22;24897;53.514;10.482;2022-07-29T13:06:28;27.40;99.90
23683;DHT22;24897;53.514;10.482;2022-07-29T13:09:18;27.40;99.90
23683;DHT22;24897;53.514;10.482;2022-07-29T13:12:06;27.40;99.90
23683;DHT22;24897;53.514;10.482;2022-07-29T13:14:51;27.60;99.90
23683;DHT22;24897;53.514;10.482;2022-07-29T13:17:40;28.10;99.90
23683;DHT22;24897;53.514;10.482;2022-07-29T13:20:28;28.00;99.90
23683;DHT22;24897;53.514;10.482;2022-07-29T13:23:15;27.70;99.90
23683;DHT22;24897;53.514;10.482;2022-07-29T13:26:08;27.70;99.90
23683;DHT22;24897;53.514;10.482;2022-07-29T13:28:53;27.90;99.90
23683;DHT22;24897;53.514;10.482;2022-07-29T13:31:37;28.00;99.90
23683;DHT22;24897;53.514;10.482;2022-07-29T13:34:21;28.00;99.90
23683;DHT22;24897;53.514;10.482;2022-07-29T13:37:08;28.20;99.90
23683;DHT22;24897;53.514;10.482;2022-07-29T13:39:52;27.50;99.90
23683;DHT22;24897;53.514;10.482;2022-07-29T13:42:38;27.50;99.90
23683;DHT22;24897;53.514;10.482;2022-07-29T13:45:22;27.20;99.90
23683;DHT22;24897;53.514;10.482;2022-07-29T13:48:07;27.00;99.90
23683;DHT22;24897;53.514;10.482;2022-07-29T13:50:51;27.20;99.90
23683;DHT22;24897;53.514;10.482;2022-07-29T13:53:35;27.20;99.90
23683;DHT22;24897;53.514;10.482;2022-07-29T13:56:19;27.20;99.90
23683;DHT22;24897;53.514;10.482;2022-07-29T13:59:03;27.30;99.90
23683;DHT22;24897;53.514;10.482;2022-07-29T14:01:47;27.00;99.90
23683;DHT22;24897;53.514;10.482;2022-07-29T14:04:33;27.40;99.90
23683;DHT22;24897;53.514;10.482;2022-07-29T14:07:17;27.80;99.90
23683;DHT22;24897;53.514;10.482;2022-07-29T14:10:01;27.70;99.90
23683;DHT22;24897;53.514;10.482;2022-07-29T14:12:45;27.10;99.90
23683;DHT22;24897;53.514;10.482;2022-07-29T14:15:29;26.70;99.90
23683;DHT22;24897;53.514;10.482;2022-07-29T14:18:13;26.80;99.90
23683;DHT22;24897;53.514;10.482;2022-07-29T14:20:57;26.30;99.90
23683;DHT22;24897;53.514;10.482;2022-07-29T14:23:41;26.30;99.90
23683;DHT22;24897;53.514;10.482;2022-07-29T14:26:26;26.10;99.90
23683;DHT22;24897;53.514;10.482;2022-07-29T14:29:10;26.20;99.90
23683;DHT22;24897;53.514;10.482;2022-07-29T14:31:54;25.80;99.90
23683;DHT22;24897;53.514;10.482;2022-07-29T14:34:38;26.50;99.90
23683;DHT22;24897;53.514;10.482;2022-07-29T14:37:23;26.90;99.90
23683;DHT22;24897;53.514;10.482;2022-07-29T14:40:09;27.00;99.90
23683;DHT22;24897;53.514;10.482;2022-07-29T14:42:53;27.20;99.90
23683;DHT22;24897;53.514;10.482;2022-07-29T14:45:37;27.30;99.90
23683;DHT22;24897;53.514;10.482;2022-07-29T14:48:22;26.90;99.90
23683;DHT22;24897;53.514;10.482;2022-07-29T14:51:06;26.90;99.90
23683;DHT22;24897;53.514;10.482;2022-07-29T14:53:50;26.80;99.90
23683;DHT22;24897;53.514;10.482;2022-07-29T14:56:34;26.80;99.90
23683;DHT22;24897;53.514;10.482;2022-07-29T14:59:18;26.70;99.90
23683;DHT22;24897;53.514;10.482;2022-07-29T15:02:02;26.70;99.90
23683;DHT22;24897;53.514;10.482;2022-07-29T15:04:47;26.60;99.90
23683;DHT22;24897;53.514;10.482;2022-07-29T15:07:32;26.60;99.90
23683;DHT22;24897;53.514;10.482;2022-07-29T15:10:16;26.50;99.90
23683;DHT22;24897;53.514;10.482;2022-07-29T15:13:00;26.40;99.90
23683;DHT22;24897;53.514;10.482;2022-07-29T15:15:44;26.40;99.90
23683;DHT22;24897;53.514;10.482;2022-07-29T15:18:29;26.80;99.90
23683;DHT22;24897;53.514;10.482;2022-07-29T15:21:14;26.50;99.90
23683;DHT22;24897;53.514;10.482;2022-07-29T15:23:59;26.60;99.90
23683;DHT22;24897;53.514;10.482;2022-07-29T15:26:43;25.90;99.90
23683;DHT22;24897;53.514;10.482;2022-07-29T15:29:28;26.10;99.90
23683;DHT22;24897;53.514;10.482;2022-07-29T15:32:12;26.30;99.90
23683;DHT22;24897;53.514;10.482;2022-07-29T15:34:56;26.50;99.90
23683;DHT22;24897;53.514;10.482;2022-07-29T15:37:40;26.60;99.90
23683;DHT22;24897;53.514;10.482;2022-07-29T15:40:24;26.80;99.90
23683;DHT22;24897;53.514;10.482;2022-07-29T15:43:09;26.70;99.90
23683;DHT22;24897;53.514;10.482;2022-07-29T15:45:53;26.70;99.90
23683;DHT22;24897;53.514;10.482;2022-07-29T15:48:56;26.80;99.90
23683;DHT22;24897;53.514;10.482;2022-07-29T15:51:40;26.60;99.90
23683;DHT22;24897;53.514;10.482;2022-07-29T15:54:24;26.50;99.90
23683;DHT22;24897;53.514;10.482;2022-07-29T15:57:08;26.20;99.90
23683;DHT22;24897;53.514;10.482;2022-07-29T15:59:53;25.70;99.90
23683;DHT22;24897;53.514;10.482;2022-07-29T16:02:37;25.30;99.90
23683;DHT22;24897;53.514;10.482;2022-07-29T16:05:22;25.20;99.90
23683;DHT22;24897;53.514;10.482;2022-07-29T16:08:06;25.30;99.90
23683;DHT22;24897;53.514;10.482;2022-07-29T16:10:50;25.30;99.90
23683;DHT22;24897;53.514;10.482;2022-07-29T16:13:34;25.20;99.90
23683;DHT22;24897;53.514;10.482;2022-07-29T16:16:19;25.20;99.90
23683;DHT22;24897;53.514;10.482;2022-07-29T16:19:04;25.90;99.90
23683;DHT22;24897;53.514;10.482;2022-07-29T16:21:48;25.50;99.90
23683;DHT22;24897;53.514;10.482;2022-07-29T16:24:32;25.40;99.90
23683;DHT22;24897;53.514;10.482;2022-07-29T16:27:17;25.20;99.90
23683;DHT22;24897;53.514;10.482;2022-07-29T16:30:01;26.00;99.90
23683;DHT22;24897;53.514;10.482;2022-07-29T16:32:45;25.30;99.90
23683;DHT22;24897;53.514;10.482;2022-07-29T16:35:30;25.80;99.90
23683;DHT22;24897;53.514;10.482;2022-07-29T16:38:14;25.20;99.90
23683;DHT22;24897;53.514;10.482;2022-07-29T16:40:58;25.20;99.90
23683;DHT22;24897;53.514;10.482;2022-07-29T16:43:42;24.90;99.90
23683;DHT22;24897;53.514;10.482;2022-07-29T16:46:27;24.90;99.90
23683;DHT22;24897;53.514;10.482;2022-07-29T16:49:11;25.10;99.90
23683;DHT22;24897;53.514;10.482;2022-07-29T16:51:56;25.20;99.90
23683;DHT22;24897;53.514;10.482;2022-07-29T16:54:40;25.20;99.90
23683;DHT22;24897;53.514;10.482;2022-07-29T16:57:25;24.90;99.90
23683;DHT22;24897;53.514;10.482;2022-07-29T17:00:10;24.90;99.90
23683;DHT22;24897;53.514;10.482;2022-07-29T17:02:54;24.70;99.90
23683;DHT22;24897;53.514;10.482;2022-07-29T17:05:38;24.60;99.90
23683;DHT22;24897;53.514;10.482;2022-07-29T17:08:22;24.60;99.90
23683;DHT22;24897;53.514;10.482;2022-07-29T17:11:08;24.50;99.90
23683;DHT22;24897;53.514;10.482;2022-07-29T17:13:52;24.50;99.90
23683;DHT22;24897;53.514;10.482;2022-07-29T17:16:36;24.60;99.90
23683;DHT22;24897;53.514;10.482;2022-07-29T17:19:20;24.40;99.90
23683;DHT22;24897;53.514;10.482;2022-07-29T17:22:04;24.90;99.90
23683;DHT22;24897;53.514;10.482;2022-07-29T17:24:49;24.40;99.90
23683;DHT22;24897;53.514;10.482;2022-07-29T17:27:34;22.60;99.90
23683;DHT22;24897;53.514;10.482;2022-07-29T17:30:18;24.00;99.90
23683;DHT22;24897;53.514;10.482;2022-07-29T17:33:02;23.30;99.90
23683;DHT22;24897;53.514;10.482;2022-07-29T17:35:47;23.50;99.90
23683;DHT22;24897;53.514;10.482;2022-07-29T17:38:51;23.70;99.90
23683;DHT22;24897;53.514;10.482;2022-07-29T17:41:37;23.30;99.90
23683;DHT22;24897;53.514;10.482;2022-07-29T17:44:23;23.30;99.90
23683;DHT22;24897;53.514;10.482;2022-07-29T17:47:08;23.10;99.90
23683;DHT22;24897;53.514;10.482;2022-07-29T17:49:52;23.00;99.90
23683;DHT22;24897;53.514;10.482;2022-07-29T17:52:36;23.20;99.90
23683;DHT22;24897;53.514;10.482;2022-07-29T17:55:21;23.20;99.90
23683;DHT22;24897;53.514;10.482;2022-07-29T17:58:05;22.80;99.90
23683;DHT22;24897;53.514;10.482;2022-07-29T18:00:52;22.80;99.90
23683;DHT22;24897;53.514;10.482;2022-07-29T18:03:35;22.70;99.90
23683;DHT22;24897;53.514;10.482;2022-07-29T18:06:19;22.60;99.90
23683;DHT22;24897;53.514;10.482;2022-07-29T18:09:04;22.50;99.90
23683;DHT22;24897;53.514;10.482;2022-07-29T18:11:48;22.40;99.90
23683;DHT22;24897;53.514;10.482;2022-07-29T18:14:32;22.40;99.90
23683;DHT22;24897;53.514;10.482;2022-07-29T18:17:17;22.30;99.90
23683;DHT22;24897;53.514;10.482;2022-07-29T18:20:01;22.30;99.90
23683;DHT22;24897;53.514;10.482;2022-07-29T18:22:46;22.20;99.90
23683;DHT22;24897;53.514;10.482;2022-07-29T18:25:30;22.00;99.90
23683;DHT22;24897;53.514;10.482;2022-07-29T18:28:14;22.10;99.90
23683;DHT22;24897;53.514;10.482;2022-07-29T18:30:59;21.80;99.90
23683;DHT22;24897;53.514;10.482;2022-07-29T18:33:45;21.70;99.90